Airfield :







YOU CAN JOIN US ON...

 
LOGIN :

Register | Disclaimer

   EN    FR    IT 

 









Legend :    VFR   Marginal VFR   IFR   Intensive IFR   Very Intensive IFR
Visi :
Ceiling :
>= 8 km
>= 3000ft
5 to 8 km
1000 to 3000 ft
1500m to 5 km
500 to 1000 ft
800 to 1500m
200 to 500 ft
< 800m
< 200 ft
Symbols :   Thunderstorms  Fog  Heavy snow  Heavy precipitations  Wind > 20 kt






- Airport Elevation : 586 ft
- IATA code : YRJ


CYRJ - Roberval

CURRENT METAR :
  • 221200Z 32008KT 3SM -RA BR FEW007 OVC045 07/07 A2964 RMK SF1SC7 SLP044

EXPIRED METARs :
  • 221100Z 32006KT 12SM -RA FEW020 OVC035 07/07 A2961 RMK SC1SC8 SC TR SLP033
  • 221000Z 29006KT 8SM -RA OVC032 08/08 A2959 RMK SC8 SLP027

TAF TAF CYRJ
Valid from the 22 at 12:00 until the 23 at 00:00 UTC


221140Z 2212/2224 30008KT P6SM -RA SCT015 OVC030
TEMPO 2212/2216 5SM -RA BR SCT008 OVC015
FM221600 29010G20KT P6SM SCT020 BKN030
TEMPO 2216/2224 BKN020 BKN030 RMK NXT FCST BY 221400Z
CZUL FIR / North America



MET'MAP, your aeronautical weather chart ! - Copyright ORBIFLY December 2007 - Disclaimer

ORBIFLY MET'MAP TEAM :

Programming & Development : Alexandra Zaïnal
Concept & original design : Baudouin d'Aumeries
Assistance for programming : Marc-Olivier Méhu
Technical & hardware support : Manuel Goepfert

Contact : metmap@orbifly.com




SOURCES & CREDITS :

   NOAA